Meteorología y climatología de Navarra
Datos de la estación - Meteo Navarra

Estación de Erremendia (Salazar) GN

Altitud 1047 m.


Datos desde el 11/01/2019 hasta el 12/01/2019 en horario solar
Los datos son PROVISIONALES

Anterior Página 1 de 1 Siguiente Descargar: Formato para Excel 2000 o superior   Formato csv   Formato para OpenOffice Calc
Fecha Temperatura Humedad relativa Radiación global Insolación Precipitación Velocidad viento 10 m Velocidad viento 10 m Dirección viento 10 m
ºC % W/m² s l/m² m/s km/h º
11/01/2019 0:00 -4.2 82 0.0 0 0.0 2.0 7.2 12
11/01/2019 0:10 -4.2 82 0.0 0 0.0 1.8 6.4 354
11/01/2019 0:20 -4.1 82 0.0 0 0.0 1.6 5.7 359
11/01/2019 0:30 -4.1 82 0.0 0 0.0 2.1 7.4 335
11/01/2019 0:40 -4.1 83 0.0 0 0.0 2.9 10.4 342
11/01/2019 0:50 -4.1 83 0.0 0 0.0 2.5 9.0 334
11/01/2019 1:00 -4.1 84 0.0 0 0.0 2.2 7.8 327
11/01/2019 1:10 -4.1 84 0.0 0 0.0 2.2 7.7 323
11/01/2019 1:20 -4.2 83 0.0 0 0.0 2.4 8.7 327
11/01/2019 1:30 -4.1 82 0.0 0 0.0 2.7 9.6 334
11/01/2019 1:40 -4.1 82 0.0 0 0.0 2.0 7.3 341
11/01/2019 1:50 -4.1 82 0.0 0 0.0 2.4 8.5 338
11/01/2019 2:00 -4.2 83 0.0 0 0.0 2.2 8.1 323
11/01/2019 2:10 -4.2 82 0.0 0 0.0 2.5 9.1 318
11/01/2019 2:20 -4.2 82 0.0 0 0.0 2.2 8.0 320
11/01/2019 2:30 -4.3 82 0.0 0 0.0 2.3 8.4 324
11/01/2019 2:40 -4.3 82 0.0 0 0.0 2.2 8.0 329
11/01/2019 2:50 -4.3 83 0.0 0 0.0 2.3 8.3 336
11/01/2019 3:00 -4.3 83 0.0 0 0.0 2.6 9.5 329
11/01/2019 3:10 -4.3 84 0.0 0 0.0 3.0 10.8 332
11/01/2019 3:20 -4.4 84 0.0 0 0.0 3.2 11.4 332
11/01/2019 3:30 -4.4 84 0.0 0 0.0 2.7 9.9 342
11/01/2019 3:40 -4.4 85 0.0 0 0.0 3.7 13.1 337
11/01/2019 3:50 -4.5 85 0.0 0 0.0 4.0 14.4 333
11/01/2019 4:00 -4.5 86 0.0 0 0.0 3.1 11.2 338
11/01/2019 4:10 -4.6 85 0.0 0 0.0 3.2 11.4 335
11/01/2019 4:20 -4.7 85 0.0 0 0.0 2.5 9.1 338
11/01/2019 4:30 -4.7 85 0.0 0 0.0 3.6 13.0 340
11/01/2019 4:40 -4.8 84 0.0 0 0.0 3.5 12.6 339
11/01/2019 4:50 -4.9 83 0.0 0 0.0 2.3 8.2 340
11/01/2019 5:00 -5.1 82 0.0 0 0.0 2.4 8.5 332
11/01/2019 5:10 -5.2 81 0.0 0 0.0 2.8 9.9 317
11/01/2019 5:20 -5.3 79 0.0 0 0.0 2.8 10.0 328
11/01/2019 5:30 -5.5 81 0.0 0 0.0 2.3 8.1 309
11/01/2019 5:40 -5.8 84 0.0 0 0.0 2.4 8.5 321
11/01/2019 5:50 -5.8 85 0.0 0 0.0 2.5 8.8 319
11/01/2019 6:00 -5.9 85 0.0 0 0.0 2.7 9.5 319
11/01/2019 6:10 -5.8 82 0.0 0 0.0 3.2 11.4 313
11/01/2019 6:20 -5.7 81 0.0 0 0.0 3.1 11.2 316
11/01/2019 6:30 -5.7 81 0.0 0 0.0 2.5 9.0 320
11/01/2019 6:40 -5.8 80 0.0 0 0.0 3.0 10.9 318
11/01/2019 6:50 -5.9 81 0.0 0 0.0 2.6 9.2 325
11/01/2019 7:00 -5.8 80 0.0 0 0.0 2.5 9.0 318
11/01/2019 7:10 -6.0 83 0.0 0 0.0 2.8 9.9 315
11/01/2019 7:20 -6.1 85 0.0 0 0.0 2.4 8.7 320
11/01/2019 7:30 -5.9 83 0.0 0 0.0 2.3 8.2 333
11/01/2019 7:40 -6.0 83 0.0 0 0.0 2.7 9.6 325
11/01/2019 7:50 -5.9 82 1.1 0 0.0 2.4 8.7 322
11/01/2019 8:00 -5.7 83 25.5 28 0.0 2.6 9.3 321
11/01/2019 8:10 -5.4 83 39.0 600 0.0 1.6 5.9 331
11/01/2019 8:20 -5.2 83 57.8 600 0.0 2.1 7.7 326
11/01/2019 8:30 -4.8 79 72.2 470 0.0 2.1 7.5 320
11/01/2019 8:40 -4.5 77 91.1 600 0.0 2.1 7.5 332
11/01/2019 8:50 -3.9 72 131.1 600 0.0 2.1 7.5 330
11/01/2019 9:00 -3.7 71 154.5 600 0.0 2.6 9.3 335
11/01/2019 9:10 -3.5 70 145.3 600 0.0 2.6 9.3 344
11/01/2019 9:20 -3.5 70 206.4 600 0.0 3.1 11.0 332
11/01/2019 9:30 -3.0 68 254.1 600 0.0 3.4 12.2 342
11/01/2019 9:40 -2.9 68 258.7 600 0.0 4.0 14.3 342
11/01/2019 9:50 -3.0 70 158.2 306 0.0 3.7 13.5 339
11/01/2019 10:00 -2.9 70 227.5 600 0.0 3.8 13.7 334
11/01/2019 10:10 -2.9 71 172.5 236 0.0 3.4 12.3 350
11/01/2019 10:20 -2.7 71 204.4 408 0.0 3.3 12.0 1
11/01/2019 10:30 -2.5 70 395.5 562 0.0 4.5 16.2 358
11/01/2019 10:40 -1.6 68 440.3 600 0.0 3.6 12.8 10
11/01/2019 10:50 -1.6 67 281.1 600 0.0 4.2 15.0 4
11/01/2019 11:00 -1.7 67 238.8 600 0.0 3.9 14.2 6
11/01/2019 11:10 -1.6 67 237.2 544 0.0 4.0 14.4 6
11/01/2019 11:20 -1.6 67 269.3 598 0.0 4.7 16.8 15
11/01/2019 11:30 -1.3 67 325.8 458 0.0 5.3 19.2 16
11/01/2019 11:40 -1.0 66 385.6 508 0.0 5.4 19.5 19
11/01/2019 11:50 -0.9 66 385.7 552 0.0 5.6 20.1 18
11/01/2019 12:00 -0.8 65 402.0 554 0.0 5.0 17.9 21
11/01/2019 12:10 -0.6 65 453.0 578 0.0 4.7 17.0 24
11/01/2019 12:20 -0.3 64 475.4 536 0.0 5.1 18.5 8
11/01/2019 12:30 -0.4 64 445.5 548 0.0 5.7 20.5 2
11/01/2019 12:40 -0.6 64 373.6 472 0.0 5.7 20.3 6
11/01/2019 12:50 -0.4 64 484.5 588 0.0 6.0 21.7 14
11/01/2019 13:00 -0.4 64 471.9 574 0.0 6.5 23.3 11
11/01/2019 13:10 -0.3 64 506.7 588 0.0 6.1 21.9 12
11/01/2019 13:20 -0.2 64 523.0 596 0.0 5.9 21.2 17
11/01/2019 13:30 -0.1 63 514.0 600 0.0 5.3 19.0 15
11/01/2019 13:40 -0.1 63 478.2 576 0.0 5.0 17.8 8
11/01/2019 13:50 0.1 63 467.6 576 0.0 5.0 18.0 20
11/01/2019 14:00 0.2 63 472.9 598 0.0 4.9 17.6 21
11/01/2019 14:10 0.3 63 404.8 590 0.0 4.9 17.6 12
11/01/2019 14:20 0.2 64 322.5 498 0.0 4.7 16.7 12
11/01/2019 14:30 -0.1 65 344.2 504 0.0 5.1 18.2 16
11/01/2019 14:40 -0.2 65 276.8 484 0.0 5.5 19.7 11
11/01/2019 14:50 -0.3 66 309.8 590 0.0 5.0 17.9 13
11/01/2019 15:00 -0.3 66 280.6 586 0.0 5.1 18.5 10
11/01/2019 15:10 -0.3 66 255.0 550 0.0 5.2 18.6 9
11/01/2019 15:20 -0.5 67 225.5 580 0.0 5.0 18.0 12
11/01/2019 15:30 -0.4 67 205.0 600 0.0 4.8 17.3 13
11/01/2019 15:40 -0.5 67 155.8 572 0.0 4.8 17.2 14
11/01/2019 15:50 -0.8 69 114.5 582 0.0 5.5 19.8 13
11/01/2019 16:00 -1.0 70 102.8 600 0.0 5.3 19.0 11
11/01/2019 16:10 -1.1 70 48.9 178 0.0 4.8 17.2 12
11/01/2019 16:20 -1.4 72 18.9 0 0.0 4.6 16.5 11
11/01/2019 16:30 -1.4 72 4.0 0 0.0 4.6 16.4 3
11/01/2019 16:40 -1.5 72 0.0 0 0.0 5.0 18.0 6
11/01/2019 16:50 -1.6 73 0.0 0 0.0 4.7 16.9 9
11/01/2019 17:00 -1.5 73 0.0 0 0.0 4.8 17.3 3
11/01/2019 17:10 -1.6 73 0.0 0 0.0 4.4 15.9 5
11/01/2019 17:20 -1.7 73 0.0 0 0.0 4.1 14.8 6
11/01/2019 17:30 -1.7 74 0.0 0 0.0 4.0 14.5 9
11/01/2019 17:40 -1.7 74 0.0 0 0.0 3.8 13.6 9
11/01/2019 17:50 -1.7 74 0.0 0 0.0 4.1 14.9 11
11/01/2019 18:00 -1.7 74 0.0 0 0.0 4.2 15.0 6
11/01/2019 18:10 -1.7 73 0.0 0 0.0 4.4 15.8 5
11/01/2019 18:20 -1.6 72 0.0 0 0.0 3.8 13.6 10
11/01/2019 18:30 -1.4 71 0.0 0 0.0 4.7 16.8 2
11/01/2019 18:40 -1.1 69 0.0 0 0.0 5.0 17.8 360
11/01/2019 18:50 -1.0 68 0.0 0 0.0 5.0 17.8 4
11/01/2019 19:00 -0.9 68 0.0 0 0.0 4.4 15.8 3
11/01/2019 19:10 -0.7 67 0.0 0 0.0 5.0 18.0 1
11/01/2019 19:20 -0.9 67 0.0 0 0.0 4.4 15.8 1
11/01/2019 19:30 -0.9 68 0.0 0 0.0 4.2 15.2 3
11/01/2019 19:40 -1.0 69 0.0 0 0.0 3.7 13.3 3
11/01/2019 19:50 -1.1 70 0.0 0 0.0 3.9 14.1 9
11/01/2019 20:00 -1.1 70 0.0 0 0.0 4.0 14.2 16
11/01/2019 20:10 -1.2 72 0.0 0 0.0 3.9 13.9 19
11/01/2019 20:20 -1.2 73 0.0 0 0.0 3.6 12.9 11
11/01/2019 20:30 -1.3 73 0.0 0 0.0 2.2 8.0 11
11/01/2019 20:40 -1.3 75 0.0 0 0.0 1.5 5.4 28
11/01/2019 20:50 -1.5 75 0.0 0 0.0 1.1 3.9 8
11/01/2019 21:00 -1.6 76 0.0 0 0.0 1.1 4.0 272
11/01/2019 21:10 -1.6 76 0.0 0 0.0 1.4 4.9 8
11/01/2019 21:20 -1.6 76 0.0 0 0.0 1.9 7.0 360
11/01/2019 21:30 -1.3 75 0.0 0 0.0 1.7 6.2 290
11/01/2019 21:40 -1.6 76 0.0 0 0.0 1.7 6.2 180
11/01/2019 21:50 -1.7 77 0.0 0 0.0 2.5 9.1 195
11/01/2019 22:00 -2.1 78 0.0 0 0.0 2.6 9.3 202
11/01/2019 22:10 -2.5 79 0.0 0 0.0 1.9 6.8 239
11/01/2019 22:20 -2.7 81 0.0 0 0.0 1.4 5.1 248
11/01/2019 22:30 -2.5 80 0.0 0 0.0 1.3 4.5 212
11/01/2019 22:40 -2.6 81 0.0 0 0.0 1.8 6.6 231
11/01/2019 22:50 -2.7 81 0.0 0 0.0 2.4 8.8 183
11/01/2019 23:00 -2.9 83 0.0 0 0.0 2.1 7.5 206
11/01/2019 23:10 -2.6 82 0.0 0 0.0 1.7 5.9 218
11/01/2019 23:20 -2.8 82 0.0 0 0.0 1.5 5.2 248
11/01/2019 23:30 -2.3 81 0.0 0 0.0 1.2 4.2 280
11/01/2019 23:40 -1.9 80 0.0 0 0.0 1.6 5.6 307
11/01/2019 23:50 -1.5 78 0.0 0 0.0 1.8 6.4 335
Anterior Página 1 de 1 Siguiente

NOTA: Tipo de datos según el color:
   - Valores diarios o 10 minutos correctos
   - Valores diarios calculados a partir de un número de datos 10 minutos menor que 144 y mayor que 120, o de un número de datos semihorarios menor que 48 y mayor que 40 (caso de las estaciones de Riegos de Navarra y del MARM)
   - Valores diez minutos estimados


Contacto        Enlaces        Aviso legal